KTOL/TOL METAR and TAF weather

Enter ICAO airport designator
Station Type Date Time Source
KTOL METAR 2019/10/23 13:52 UTC NOAA

KTOL 231352Z 24013G19KT 10SM CLR 09/00 A2998 RMK AO2 SLP154 T00940000


Station Type Date Time Source
KTOL Decoded METAR 2019/10/23 13:52 UTC NOAA

TOLEDO EXPRESS AIRPORT, OH, United States (KTOL) 41-35N 083-48W 210M
Oct 23, 2019 - 09:52 AM EDT / 2019.10.23 1352 UTC
Wind: from the WSW (240 degrees) at 15 MPH (13 KT) gusting to 22 MPH (19 KT):0
Visibility: 10 mile(s):0
Sky conditions: clear
Temperature: 48.9 F (9.4 C)
Dew Point: 32.0 F (0.0 C)
Relative Humidity: 51%
Pressure (altimeter): 29.98 in. Hg (1015 hPa)
ob: KTOL 231352Z 24013G19KT 10SM CLR 09/00 A2998 RMK AO2 SLP154 T00940000
cycle: 14

Station Type Date Time Source
KTOL TAF 2019/10/23 12:33 UTC NOAA

TAF KTOL 231130Z 2312/2412 22011KT P6SM SKC
FM231400 23015G22KT P6SM SCT090
FM232200 21012KT P6SM BKN090 BKN170 WS020/22045KT

Example: see airport list